createdAt,value
2023-02-11T00:00:42.908Z,25.63
2023-02-11T00:03:11.347Z,25.87
2023-02-11T00:05:39.614Z,24.60
2023-02-11T00:08:07.666Z,26.40
2023-02-11T00:10:35.800Z,26.60
2023-02-11T00:13:03.907Z,24.73
2023-02-11T00:15:31.967Z,23.92
2023-02-11T00:18:01.396Z,25.30
2023-02-11T00:20:29.524Z,23.43
2023-02-11T00:22:57.615Z,24.40
2023-02-11T00:25:25.777Z,26.77
2023-02-11T00:27:53.879Z,26.07
2023-02-11T00:30:21.986Z,26.07
2023-02-11T00:32:50.074Z,24.53
2023-02-11T00:35:19.542Z,25.23
2023-02-11T00:37:47.605Z,24.67
2023-02-11T00:40:16.717Z,26.10
2023-02-11T00:42:44.767Z,26.53
2023-02-11T00:45:13.447Z,25.77
2023-02-11T00:47:41.535Z,25.00
2023-02-11T00:50:10.164Z,23.90
2023-02-11T00:52:39.645Z,24.43
2023-02-11T00:55:08.626Z,24.33
2023-02-11T00:57:36.845Z,23.27
2023-02-11T01:00:15.690Z,24.55
2023-02-11T01:02:43.816Z,26.45
2023-02-11T01:05:12.007Z,24.00
2023-02-11T01:07:41.567Z,25.02
2023-02-11T01:10:10.370Z,25.17
2023-02-11T01:12:39.089Z,24.73
2023-02-11T01:15:09.730Z,24.08
2023-02-11T01:17:37.820Z,25.38
2023-02-11T01:20:07.366Z,26.90
2023-02-11T01:22:37.346Z,25.80
2023-02-11T01:25:07.536Z,27.27
2023-02-11T01:27:37.673Z,26.35
2023-02-11T01:30:07.873Z,23.60
2023-02-11T01:32:36.826Z,25.07
2023-02-11T01:35:05.117Z,25.08
2023-02-11T01:37:34.688Z,23.80
2023-02-11T01:40:03.420Z,24.23
2023-02-11T01:42:33.948Z,26.02
2023-02-11T01:45:23.240Z,23.95
2023-02-11T01:47:51.432Z,25.42
2023-02-11T01:50:20.235Z,24.38
2023-02-11T01:52:48.873Z,24.83
2023-02-11T01:55:37.059Z,23.33
2023-02-11T01:58:07.063Z,22.80
2023-02-11T02:00:37.688Z,23.30
2023-02-11T02:03:09.270Z,24.80
2023-02-11T02:05:43.867Z,24.77
2023-02-11T02:08:18.787Z,23.85
2023-02-11T02:10:48.538Z,23.90
2023-02-11T02:13:19.441Z,23.83
2023-02-11T02:15:51.879Z,23.85
2023-02-11T02:18:36.917Z,24.27
2023-02-11T02:21:52.909Z,25.00
2023-02-11T02:24:40.349Z,23.63
2023-02-11T02:27:39.055Z,24.60
2023-02-11T02:30:31.277Z,23.00
2023-02-11T02:33:22.268Z,25.25
2023-02-11T02:35:59.506Z,25.35
2023-02-11T02:38:32.525Z,23.45
2023-02-11T02:41:04.762Z,24.88
2023-02-11T02:43:33.474Z,24.75
2023-02-11T02:46:12.935Z,23.80
2023-02-11T02:48:42.514Z,24.38
2023-02-11T02:51:22.621Z,25.08
2023-02-11T02:54:00.779Z,25.08
2023-02-11T02:56:39.492Z,24.00
2023-02-11T02:59:29.928Z,23.75
2023-02-11T03:02:07.283Z,24.50
2023-02-11T03:04:43.564Z,25.73
2023-02-11T03:07:19.434Z,25.02
2023-02-11T03:09:53.258Z,26.05
2023-02-11T03:12:23.284Z,26.33
2023-02-11T03:14:53.446Z,24.80
2023-02-11T03:17:23.034Z,25.00
2023-02-11T03:19:53.261Z,25.55
2023-02-11T03:22:26.650Z,25.70
2023-02-11T03:24:56.605Z,24.83
2023-02-11T03:27:29.852Z,26.85
2023-02-11T03:30:02.414Z,26.25
2023-02-11T03:32:34.945Z,26.33
2023-02-11T03:35:11.508Z,26.40
2023-02-11T03:37:44.066Z,26.95
2023-02-11T03:40:15.875Z,27.23
2023-02-11T03:42:47.236Z,27.45
2023-02-11T03:45:19.000Z,27.00
2023-02-11T03:47:51.963Z,26.98
2023-02-11T03:50:23.140Z,28.08
2023-02-11T03:52:52.182Z,26.98
2023-02-11T03:55:22.219Z,28.30
2023-02-11T03:57:50.397Z,26.17
2023-02-11T04:00:18.787Z,28.20
2023-02-11T04:02:46.958Z,28.30
2023-02-11T04:05:17.338Z,30.83
2023-02-11T04:07:46.829Z,29.02
2023-02-11T04:10:15.050Z,28.40
2023-02-11T04:12:43.168Z,27.00
2023-02-11T04:15:11.575Z,26.20
2023-02-11T04:17:39.946Z,26.38
2023-02-11T04:20:08.700Z,28.08
2023-02-11T04:22:37.082Z,27.75
2023-02-11T04:25:07.967Z,26.00
2023-02-11T04:27:36.122Z,27.55
2023-02-11T04:30:04.501Z,27.20
2023-02-11T04:32:32.660Z,29.00
2023-02-11T04:35:00.787Z,29.13
2023-02-11T04:37:28.977Z,27.98
2023-02-11T04:39:57.105Z,26.90
2023-02-11T04:42:26.639Z,27.38
2023-02-11T04:44:54.746Z,27.80
2023-02-11T04:47:22.871Z,29.17
2023-02-11T04:49:50.947Z,27.30
2023-02-11T04:52:19.044Z,28.13
2023-02-11T04:54:47.420Z,28.45
2023-02-11T04:57:15.864Z,29.23
2023-02-11T04:59:45.479Z,29.85
2023-02-11T05:02:13.677Z,28.60
2023-02-11T05:04:41.829Z,28.67
2023-02-11T05:07:10.013Z,31.50
2023-02-11T05:09:38.189Z,30.15
2023-02-11T05:12:06.511Z,30.10
2023-02-11T05:14:34.710Z,30.40
2023-02-11T05:17:04.300Z,30.77
2023-02-11T05:19:32.625Z,28.73
2023-02-11T05:22:03.328Z,29.50
2023-02-11T05:24:32.583Z,29.60
2023-02-11T05:27:01.653Z,30.23
2023-02-11T05:29:29.873Z,31.00
2023-02-11T05:31:59.746Z,32.60
2023-02-11T05:34:29.195Z,31.48
2023-02-11T05:36:57.691Z,31.77
2023-02-11T05:39:25.825Z,31.43
2023-02-11T05:41:53.942Z,33.00
2023-02-11T05:44:22.034Z,32.10
2023-02-11T05:46:50.296Z,30.63
2023-02-11T05:49:19.050Z,32.00
2023-02-11T05:51:48.521Z,31.92
2023-02-11T05:54:16.953Z,31.48
2023-02-11T05:56:45.266Z,32.03
2023-02-11T05:59:15.102Z,31.52
2023-02-11T06:01:43.333Z,31.17
2023-02-11T06:04:11.516Z,31.40
2023-02-11T06:06:39.749Z,31.63
2023-02-11T06:09:10.240Z,33.63
2023-02-11T06:11:38.529Z,32.08
2023-02-11T06:14:07.091Z,32.55
2023-02-11T06:16:35.217Z,33.90
2023-02-11T06:19:03.656Z,32.60
2023-02-11T06:21:42.823Z,34.65
2023-02-11T06:24:13.533Z,32.65
2023-02-11T06:26:41.670Z,35.05
2023-02-11T06:29:09.977Z,33.22
2023-02-11T06:31:39.743Z,33.30
2023-02-11T06:34:08.276Z,35.60
2023-02-11T06:36:36.501Z,34.85
2023-02-11T06:39:04.869Z,35.28
2023-02-11T06:41:34.594Z,34.55
2023-02-11T06:44:02.765Z,34.60
2023-02-11T06:46:31.049Z,35.53
2023-02-11T06:48:59.237Z,37.13
2023-02-11T06:51:27.369Z,36.17
2023-02-11T06:53:56.214Z,33.08
2023-02-11T06:56:27.415Z,34.47
2023-02-11T06:58:57.664Z,34.35
2023-02-11T07:01:27.813Z,34.40
2023-02-11T07:03:56.296Z,34.28
2023-02-11T07:06:27.683Z,32.83
2023-02-11T07:08:56.458Z,33.42
2023-02-11T07:11:26.746Z,34.25
2023-02-11T07:14:00.749Z,34.25
2023-02-11T07:16:29.285Z,33.92
2023-02-11T07:18:57.449Z,32.85
2023-02-11T07:21:25.902Z,35.97
2023-02-11T07:23:54.547Z,35.90
2023-02-11T07:26:25.671Z,36.22
2023-02-11T07:28:54.319Z,34.55
2023-02-11T07:31:25.999Z,34.08
2023-02-11T07:33:55.641Z,34.10
2023-02-11T07:36:24.569Z,34.28
2023-02-11T07:38:53.046Z,30.95
2023-02-11T07:41:23.039Z,32.00
2023-02-11T07:43:51.732Z,33.38
2023-02-11T07:46:21.982Z,34.60
2023-02-11T07:48:51.599Z,33.00
2023-02-11T07:51:21.569Z,34.83
2023-02-11T07:53:50.367Z,35.65
2023-02-11T07:56:19.852Z,31.95
2023-02-11T07:58:48.370Z,33.25
2023-02-11T08:01:18.951Z,32.28
2023-02-11T08:03:47.098Z,32.95
2023-02-11T08:06:18.061Z,32.75
2023-02-11T08:08:47.187Z,33.30
2023-02-11T08:11:16.991Z,32.42
2023-02-11T08:13:45.607Z,32.50
2023-02-11T08:16:20.799Z,34.72
2023-02-11T08:18:49.729Z,31.48
2023-02-11T08:21:20.220Z,34.17
2023-02-11T08:23:49.645Z,31.58
2023-02-11T08:26:20.219Z,33.05
2023-02-11T08:28:49.851Z,33.20
2023-02-11T08:31:21.116Z,32.70
2023-02-11T08:33:49.798Z,34.92
2023-02-11T08:36:21.877Z,31.77
2023-02-11T08:38:50.416Z,32.83
2023-02-11T08:41:19.131Z,34.20
2023-02-11T08:43:48.016Z,31.58
2023-02-11T08:46:19.114Z,30.52
2023-02-11T08:48:48.382Z,31.90
2023-02-11T08:51:20.425Z,33.42
2023-02-11T08:53:48.944Z,33.25
2023-02-11T08:56:18.254Z,33.08
2023-02-11T08:58:46.527Z,31.17
2023-02-11T09:01:16.933Z,31.40
2023-02-11T09:03:45.879Z,31.25
2023-02-11T09:06:14.872Z,29.90
2023-02-11T09:08:46.489Z,32.70
2023-02-11T09:11:15.033Z,31.23
2023-02-11T09:13:44.281Z,29.35
2023-02-11T09:16:18.826Z,29.77
2023-02-11T09:18:47.450Z,29.67
2023-02-11T09:21:17.998Z,30.25
2023-02-11T09:23:48.708Z,28.55
2023-02-11T09:26:18.758Z,29.25
2023-02-11T09:28:47.409Z,29.95
2023-02-11T09:31:17.581Z,29.92
2023-02-11T09:33:48.787Z,29.98
2023-02-11T09:36:18.391Z,29.95
2023-02-11T09:38:48.629Z,29.00
2023-02-11T09:41:40.226Z,28.48
2023-02-11T09:44:11.553Z,26.23
2023-02-11T09:46:43.235Z,27.00
2023-02-11T09:49:20.983Z,27.00
2023-02-11T09:51:52.680Z,27.33
2023-02-11T09:54:29.978Z,29.05
2023-02-11T09:56:58.287Z,29.30
2023-02-11T09:59:26.577Z,28.50
2023-02-11T10:01:58.870Z,24.63
2023-02-11T10:04:48.235Z,25.52
2023-02-11T10:07:25.219Z,27.50
2023-02-11T10:10:12.132Z,26.00
2023-02-11T10:12:50.691Z,26.65
2023-02-11T10:15:33.460Z,25.80
2023-02-11T10:18:17.461Z,25.10
2023-02-11T10:20:54.831Z,26.45
2023-02-11T10:23:26.856Z,27.60
2023-02-11T10:25:58.879Z,27.25
2023-02-11T10:28:32.399Z,26.77
2023-02-11T10:31:04.463Z,25.05
2023-02-11T10:33:37.927Z,24.42
2023-02-11T10:36:06.781Z,25.65
2023-02-11T10:38:36.376Z,25.52
2023-02-11T10:41:06.588Z,24.85
2023-02-11T10:43:35.702Z,25.60
2023-02-11T10:46:05.335Z,24.08
2023-02-11T10:48:43.264Z,26.52
2023-02-11T10:51:19.860Z,25.90
2023-02-11T10:53:49.560Z,23.98
2023-02-11T10:56:26.723Z,25.77
2023-02-11T10:59:01.484Z,23.85
2023-02-11T11:01:45.241Z,23.23
2023-02-11T11:04:34.961Z,23.52
2023-02-11T11:07:13.714Z,24.98
2023-02-11T11:09:50.291Z,24.13
2023-02-11T11:12:49.482Z,22.42
2023-02-11T11:15:21.738Z,23.63
2023-02-11T11:17:50.790Z,21.80
2023-02-11T11:20:28.286Z,23.90
2023-02-11T11:23:12.629Z,22.70
2023-02-11T11:25:44.500Z,23.52
2023-02-11T11:28:23.785Z,21.58
2023-02-11T11:30:54.967Z,22.63
2023-02-11T11:33:26.157Z,20.85
2023-02-11T11:36:00.961Z,19.90
2023-02-11T11:38:29.941Z,21.85
2023-02-11T11:41:24.411Z,20.85
2023-02-11T11:43:59.550Z,20.73
2023-02-11T11:46:30.716Z,19.05
2023-02-11T11:49:15.998Z,19.50
2023-02-11T11:51:51.022Z,20.52
2023-02-11T11:54:22.869Z,17.83
2023-02-11T11:56:55.862Z,17.98
2023-02-11T11:59:25.405Z,18.83
2023-02-11T12:02:19.687Z,17.23
2023-02-11T12:05:02.393Z,17.23
2023-02-11T12:07:45.836Z,16.63
2023-02-11T12:10:41.124Z,15.07
2023-02-11T12:13:23.949Z,14.13
2023-02-11T12:16:04.245Z,16.27
2023-02-11T12:18:48.115Z,15.20
2023-02-11T12:21:29.416Z,14.88
2023-02-11T12:24:09.073Z,15.43
2023-02-11T12:26:45.381Z,13.80
2023-02-11T12:29:23.628Z,15.15
2023-02-11T12:32:11.403Z,13.73
2023-02-11T12:34:52.880Z,14.63
2023-02-11T12:37:34.594Z,14.40
2023-02-11T12:45:20.962Z,12.93
2023-02-11T12:48:00.825Z,14.48
2023-02-11T12:50:36.073Z,13.48
2023-02-11T12:53:22.253Z,13.77
2023-02-11T12:55:56.515Z,14.40
2023-02-11T12:58:42.914Z,15.48
2023-02-11T13:01:20.205Z,15.00
2023-02-11T13:03:52.227Z,14.52
2023-02-11T13:06:23.662Z,14.80
2023-02-11T13:09:00.717Z,14.00
2023-02-11T13:11:34.137Z,14.05
2023-02-11T13:14:07.241Z,13.20
2023-02-11T13:16:42.382Z,13.43
2023-02-11T13:19:19.594Z,13.05
2023-02-11T13:21:57.290Z,12.63
2023-02-11T13:24:34.744Z,13.10
2023-02-11T13:27:11.763Z,13.18
2023-02-11T13:30:05.770Z,14.38
2023-02-11T13:33:04.390Z,13.52
2023-02-11T13:35:34.136Z,13.57
2023-02-11T13:38:05.195Z,13.02
2023-02-11T13:40:36.193Z,12.65
2023-02-11T13:43:06.085Z,13.65
2023-02-11T13:45:38.614Z,11.48
2023-02-11T13:48:16.648Z,12.85
2023-02-11T13:50:49.633Z,12.32
2023-02-11T13:53:19.445Z,11.90
2023-02-11T13:55:50.559Z,12.82
2023-02-11T13:58:36.396Z,11.48
2023-02-11T14:01:05.534Z,11.18
2023-02-11T14:04:08.708Z,11.20
2023-02-11T14:06:54.291Z,11.60
2023-02-11T14:09:37.724Z,11.52
2023-02-11T14:12:26.106Z,12.43
2023-02-11T14:15:22.629Z,10.32
2023-02-11T14:17:52.432Z,12.43
2023-02-11T14:20:45.406Z,11.00
2023-02-11T14:23:27.254Z,12.88
2023-02-11T14:26:13.927Z,11.52
2023-02-11T14:28:46.726Z,10.95
2023-02-11T14:31:19.034Z,11.77
2023-02-11T14:34:09.190Z,10.90
2023-02-11T14:36:51.888Z,11.60
2023-02-11T14:39:30.475Z,11.82
2023-02-11T14:41:58.801Z,9.45
2023-02-11T14:44:29.963Z,10.77
2023-02-11T14:46:59.049Z,9.68
2023-02-11T14:49:30.790Z,10.90
2023-02-11T14:52:06.436Z,11.35
2023-02-11T14:54:35.053Z,10.10
2023-02-11T14:57:12.864Z,9.77
2023-02-11T14:59:41.857Z,9.57
2023-02-11T15:02:24.014Z,10.20
2023-02-11T15:04:52.221Z,9.35
2023-02-11T15:07:22.199Z,10.43
2023-02-11T15:09:53.565Z,8.88
2023-02-11T15:12:25.823Z,9.43
2023-02-11T15:14:58.519Z,9.95
2023-02-11T15:17:32.943Z,11.07
2023-02-11T15:20:03.160Z,9.50
2023-02-11T15:22:36.781Z,9.90
2023-02-11T15:25:12.127Z,10.07
2023-02-11T15:27:41.260Z,9.98
2023-02-11T15:30:25.749Z,10.35
2023-02-11T15:32:58.574Z,9.52
2023-02-11T15:35:29.140Z,9.77
2023-02-11T15:38:00.020Z,9.50
2023-02-11T15:40:32.415Z,9.05
2023-02-11T15:43:03.597Z,8.43
2023-02-11T15:45:34.464Z,8.80
2023-02-11T15:48:10.660Z,9.98
2023-02-11T15:50:40.913Z,9.70
2023-02-11T15:53:26.397Z,9.20
2023-02-11T15:56:01.897Z,8.60
2023-02-11T15:58:30.349Z,8.73
2023-02-11T16:00:59.981Z,8.98
2023-02-11T16:03:32.749Z,8.85
2023-02-11T16:06:16.703Z,9.13
2023-02-11T16:08:58.704Z,9.77
2023-02-11T16:11:31.126Z,9.07
2023-02-11T16:14:00.847Z,8.75
2023-02-11T16:16:32.284Z,9.13
2023-02-11T16:19:05.288Z,8.90
2023-02-11T16:21:39.135Z,8.30
2023-02-11T16:24:17.152Z,8.32
2023-02-11T16:26:50.713Z,8.63
2023-02-11T16:29:24.267Z,9.25
2023-02-11T16:31:54.868Z,7.40
2023-02-11T16:34:24.852Z,8.13
2023-02-11T16:36:54.018Z,7.22
2023-02-11T16:39:24.176Z,7.97
2023-02-11T16:41:53.312Z,7.68
2023-02-11T16:44:21.438Z,7.00
2023-02-11T16:46:49.778Z,8.57
2023-02-11T16:49:22.830Z,8.80
2023-02-11T16:51:53.227Z,8.27
2023-02-11T16:54:22.838Z,8.20
2023-02-11T16:56:51.046Z,7.18
2023-02-11T16:59:19.253Z,7.35
2023-02-11T17:01:49.544Z,8.73
2023-02-11T17:04:22.198Z,8.68
2023-02-11T17:06:50.479Z,9.80
2023-02-11T17:09:21.231Z,8.20
2023-02-11T17:11:52.232Z,8.40
2023-02-11T17:14:21.046Z,8.50
2023-02-11T17:16:49.661Z,8.60
2023-02-11T17:19:20.957Z,8.60
2023-02-11T17:21:51.021Z,8.63
2023-02-11T17:24:20.252Z,7.13
2023-02-11T17:26:50.623Z,8.45
2023-02-11T17:29:21.050Z,8.48
2023-02-11T17:31:52.005Z,9.32
2023-02-11T17:34:21.100Z,7.22
2023-02-11T17:36:49.564Z,7.93
2023-02-11T17:39:19.182Z,9.65
2023-02-11T17:41:48.000Z,9.30
2023-02-11T17:44:18.362Z,8.93
2023-02-11T17:46:46.640Z,8.90
2023-02-11T17:49:15.725Z,7.43
2023-02-11T17:51:44.346Z,7.50
2023-02-11T17:54:14.259Z,7.18
2023-02-11T17:56:43.044Z,7.40
2023-02-11T17:59:12.952Z,6.95
2023-02-11T18:01:44.532Z,7.43
2023-02-11T18:04:15.897Z,6.18
2023-02-11T18:06:44.529Z,5.65
2023-02-11T18:09:13.114Z,6.10
2023-02-11T18:11:42.031Z,6.70
2023-02-11T18:14:11.342Z,7.80
2023-02-11T18:16:42.965Z,6.60
2023-02-11T18:19:13.550Z,6.47
2023-02-11T18:21:41.965Z,6.07
2023-02-11T18:24:10.557Z,6.70
2023-02-11T18:26:38.778Z,6.10
2023-02-11T18:29:07.312Z,6.50
2023-02-11T18:31:36.771Z,6.68
2023-02-11T18:34:07.427Z,6.63
2023-02-11T18:36:37.629Z,6.18
2023-02-11T18:39:06.406Z,5.60
2023-02-11T18:41:34.778Z,6.65
2023-02-11T18:44:04.563Z,5.93
2023-02-11T18:46:32.776Z,5.78
2023-02-11T18:49:01.040Z,13.05
2023-02-11T18:51:31.800Z,6.30
2023-02-11T18:54:01.666Z,6.50
2023-02-11T18:56:30.025Z,7.00
2023-02-11T18:59:01.346Z,6.13
2023-02-11T19:01:31.153Z,5.30
2023-02-11T19:04:02.821Z,5.68
2023-02-11T19:06:33.948Z,6.10
2023-02-11T19:09:06.192Z,5.82
2023-02-11T19:11:50.401Z,5.38
2023-02-11T19:14:21.498Z,5.40
2023-02-11T19:16:51.215Z,5.88
2023-02-11T19:19:20.509Z,6.28
2023-02-11T19:21:48.900Z,5.70
2023-02-11T19:24:19.965Z,6.47
2023-02-11T19:26:48.795Z,5.90
2023-02-11T19:29:17.741Z,5.75
2023-02-11T19:31:46.528Z,6.18
2023-02-11T19:34:17.079Z,7.40
2023-02-11T19:36:45.302Z,6.05
2023-02-11T19:39:13.931Z,6.45
2023-02-11T19:41:43.472Z,7.57
2023-02-11T19:44:11.715Z,6.80
2023-02-11T19:46:41.767Z,7.10
2023-02-11T19:49:10.795Z,6.80
2023-02-11T19:51:39.448Z,6.28
2023-02-11T19:54:08.260Z,6.47
2023-02-11T19:56:37.873Z,6.45
2023-02-11T19:59:08.992Z,5.70
2023-02-11T20:01:37.881Z,5.50
2023-02-11T20:04:06.357Z,5.43
2023-02-11T20:06:35.331Z,5.10
2023-02-11T20:09:06.532Z,5.78
2023-02-11T20:11:36.317Z,5.10
2023-02-11T20:14:06.725Z,6.05
2023-02-11T20:16:47.705Z,6.30
2023-02-11T20:19:18.807Z,5.50
2023-02-11T20:21:48.561Z,6.25
2023-02-11T20:24:17.250Z,6.38
2023-02-11T20:26:48.039Z,6.70
2023-02-11T20:29:16.475Z,6.28
2023-02-11T20:31:46.721Z,7.38
2023-02-11T20:34:17.435Z,5.93
2023-02-11T20:36:51.725Z,5.90
2023-02-11T20:39:22.163Z,5.47
2023-02-11T20:41:51.192Z,5.03
2023-02-11T20:44:21.372Z,5.20
2023-02-11T20:46:52.177Z,5.72
2023-02-11T20:49:22.388Z,6.07
2023-02-11T20:51:54.440Z,5.82
2023-02-11T20:54:24.353Z,5.78
2023-02-11T20:56:53.837Z,5.85
2023-02-11T20:59:22.507Z,5.30
2023-02-11T21:01:55.652Z,5.50
2023-02-11T21:04:26.154Z,5.40
2023-02-11T21:06:56.556Z,5.60
2023-02-11T21:09:26.627Z,5.05
2023-02-11T21:11:55.108Z,5.38
2023-02-11T21:14:24.822Z,5.60
2023-02-11T21:16:54.629Z,6.50
2023-02-11T21:19:22.939Z,6.70
2023-02-11T21:21:51.191Z,5.45
2023-02-11T21:24:19.363Z,5.85
2023-02-11T21:26:47.569Z,7.95
2023-02-11T21:29:15.782Z,6.10
2023-02-11T21:31:44.185Z,5.07
2023-02-11T21:34:15.746Z,5.75
2023-02-11T21:36:45.199Z,5.70
2023-02-11T21:39:13.947Z,5.20
2023-02-11T21:41:42.194Z,6.00
2023-02-11T21:44:10.429Z,18.08
2023-02-11T21:46:38.676Z,7.20
2023-02-11T21:49:06.952Z,6.82
2023-02-11T21:51:36.717Z,6.15
2023-02-11T21:54:05.413Z,6.40
2023-02-11T21:56:35.490Z,5.18
2023-02-11T21:59:04.571Z,5.95
2023-02-11T22:01:35.231Z,5.68
2023-02-11T22:04:03.660Z,5.55
2023-02-11T22:06:34.645Z,5.72
2023-02-11T22:09:06.902Z,6.07
2023-02-11T22:11:35.249Z,6.10
2023-02-11T22:14:03.842Z,5.38
2023-02-11T22:16:32.775Z,5.88
2023-02-11T22:19:02.486Z,6.35
2023-02-11T22:21:30.788Z,7.65
2023-02-11T22:23:58.990Z,7.78
2023-02-11T22:26:29.279Z,6.50
2023-02-11T22:28:58.058Z,7.40
2023-02-11T22:31:28.002Z,6.72
2023-02-11T22:33:56.266Z,8.73
2023-02-11T22:36:26.029Z,7.05
2023-02-11T22:38:55.015Z,6.85
2023-02-11T22:41:24.071Z,7.40
2023-02-11T22:43:53.792Z,6.75
2023-02-11T22:46:22.169Z,6.70
2023-02-11T22:48:50.934Z,7.22
2023-02-11T22:51:21.526Z,6.95
2023-02-11T22:53:51.908Z,6.53
2023-02-11T22:56:20.175Z,5.82
2023-02-11T22:58:49.301Z,5.97
2023-02-11T23:01:19.323Z,6.65
2023-02-11T23:03:47.586Z,6.30
2023-02-11T23:06:16.297Z,6.78
2023-02-11T23:08:44.731Z,6.22
2023-02-11T23:11:14.788Z,6.53
2023-02-11T23:13:44.747Z,7.15
2023-02-11T23:16:14.699Z,6.50
2023-02-11T23:18:45.871Z,5.93
2023-02-11T23:21:16.876Z,6.70
2023-02-11T23:23:45.657Z,6.70
2023-02-11T23:26:16.015Z,6.07
2023-02-11T23:28:45.908Z,6.47
2023-02-11T23:31:19.467Z,6.32
2023-02-11T23:33:49.760Z,7.22
2023-02-11T23:36:20.628Z,5.95
2023-02-11T23:38:49.767Z,5.93
2023-02-11T23:41:18.769Z,5.35
2023-02-11T23:43:51.632Z,5.35
2023-02-11T23:46:21.826Z,6.20
2023-02-11T23:48:52.015Z,6.40
2023-02-11T23:51:20.720Z,6.93
2023-02-11T23:53:50.328Z,6.65
2023-02-11T23:56:20.823Z,8.13
2023-02-11T23:58:50.269Z,6.88
